BTK205 WIII-WMKK
Flight info
| Callsign | BTK205 |
|---|---|
| Flight time | N/A |
| Altitude | 38000 |
| Route | DOLTA2A/07L DOLTA A585 PKU/N0460F370 N633 SALAX SALAX1H |
| Aircraft | A320/M-SDE3FGHIRWY/LB1 |
Departure
| Time | 2026-05-06 13:03 |
|---|---|
| Airport | Soekarno-Hatta International Airport (WIII) |
Arrival
| Time | N/A |
|---|---|
| Airport | Kuala Lumpur International Airport (WMKK) |
| Time | Latitude | Longitude | Altitude | Speed | Heading |
|---|---|---|---|---|---|
| 2026-05-06 12:41 | -6.12235 | 106.64906 | 38 ft | 0 kts | 152° |
| 2026-05-06 12:50 | -6.12226 | 106.64901 | 37 ft | 3 kts | 154° |
| 2026-05-06 12:50 | -6.12208 | 106.64893 | 36 ft | 3 kts | 160° |
| 2026-05-06 12:50 | -6.12189 | 106.64887 | 37 ft | 3 kts | 172° |
| 2026-05-06 12:50 | -6.12169 | 106.64887 | 34 ft | 3 kts | 198° |
| 2026-05-06 12:51 | -6.12156 | 106.64895 | 37 ft | 2 kts | 247° |
| 2026-05-06 12:51 | -6.12154 | 106.64900 | 38 ft | 0 kts | 248° |
| 2026-05-06 12:53 | -6.12154 | 106.64898 | 38 ft | 3 kts | 248° |
| 2026-05-06 12:53 | -6.12198 | 106.64794 | 38 ft | 19 kts | 259° |
| 2026-05-06 12:54 | -6.12136 | 106.64717 | 38 ft | 13 kts | 337° |
| 2026-05-06 12:54 | -6.12047 | 106.64683 | 38 ft | 14 kts | 340° |
| 2026-05-06 12:54 | -6.11994 | 106.64619 | 39 ft | 13 kts | 260° |
| 2026-05-06 12:54 | -6.12029 | 106.64529 | 38 ft | 17 kts | 248° |
| 2026-05-06 12:55 | -6.12070 | 106.64424 | 38 ft | 15 kts | 249° |
| 2026-05-06 12:55 | -6.12112 | 106.64322 | 38 ft | 19 kts | 249° |
| 2026-05-06 12:55 | -6.12164 | 106.64192 | 37 ft | 20 kts | 248° |
| 2026-05-06 12:55 | -6.12216 | 106.64062 | 38 ft | 20 kts | 248° |
| 2026-05-06 12:56 | -6.12259 | 106.63940 | 39 ft | 12 kts | 268° |
| 2026-05-06 12:56 | -6.12219 | 106.63889 | 39 ft | 0 kts | 340° |
| 2026-05-06 12:59 | -6.12211 | 106.63886 | 39 ft | 3 kts | 341° |
| 2026-05-06 12:59 | -6.12185 | 106.63882 | 39 ft | 6 kts | 358° |
| 2026-05-06 12:59 | -6.12147 | 106.63892 | 39 ft | 6 kts | 23° |
| 2026-05-06 13:00 | -6.12100 | 106.63924 | 36 ft | 10 kts | 38° |
| 2026-05-06 13:00 | -6.12055 | 106.63979 | 38 ft | 10 kts | 69° |
| 2026-05-06 13:00 | -6.12049 | 106.63992 | 38 ft | 0 kts | 67° |
| 2026-05-06 13:02 | -6.12006 | 106.64100 | 38 ft | 52 kts | 69° |
| 2026-05-06 13:02 | -6.11784 | 106.64658 | 38 ft | 117 kts | 68° |
| 2026-05-06 13:03 | -6.11413 | 106.65578 | 46 ft | 165 kts | 67° |
| 2026-05-06 13:03 | -6.10976 | 106.66700 | 487 ft | 178 kts | 69° |
| 2026-05-06 13:03 | -6.10520 | 106.67857 | 1188 ft | 178 kts | 64° |
| 2026-05-06 13:03 | -6.09671 | 106.68730 | 1863 ft | 182 kts | 32° |
| 2026-05-06 13:04 | -6.08521 | 106.69410 | 2202 ft | 202 kts | 32° |
| 2026-05-06 13:04 | -6.07230 | 106.70179 | 2516 ft | 228 kts | 32° |
| 2026-05-06 13:04 | -6.05814 | 106.71028 | 2912 ft | 252 kts | 33° |
| 2026-05-06 13:04 | -6.04269 | 106.71961 | 3567 ft | 263 kts | 32° |
| 2026-05-06 13:05 | -6.02686 | 106.72922 | 4424 ft | 268 kts | 33° |
| 2026-05-06 13:05 | -6.01070 | 106.73905 | 4852 ft | 272 kts | 33° |
| 2026-05-06 13:05 | -5.99431 | 106.74862 | 4999 ft | 273 kts | 26° |
| 2026-05-06 13:05 | -5.97565 | 106.75142 | 5034 ft | 278 kts | 352° |
| 2026-05-06 13:06 | -5.95825 | 106.74317 | 5034 ft | 282 kts | 317° |
| 2026-05-06 13:06 | -5.94622 | 106.72729 | 5275 ft | 291 kts | 306° |
| 2026-05-06 13:06 | -5.93308 | 106.71188 | 6185 ft | 290 kts | 316° |
| 2026-05-06 13:06 | -5.91825 | 106.69806 | 7018 ft | 292 kts | 320° |
| 2026-05-06 13:07 | -5.90302 | 106.68480 | 7812 ft | 295 kts | 321° |
| 2026-05-06 13:07 | -5.88728 | 106.67094 | 8607 ft | 299 kts | 320° |
| 2026-05-06 13:07 | -5.87198 | 106.65703 | 9370 ft | 303 kts | 319° |
| 2026-05-06 13:07 | -5.85648 | 106.64245 | 10100 ft | 307 kts | 318° |
| 2026-05-06 13:08 | -5.84060 | 106.62719 | 10421 ft | 327 kts | 317° |
| 2026-05-06 13:08 | -5.82369 | 106.61069 | 10601 ft | 350 kts | 317° |
| 2026-05-06 13:08 | -5.80575 | 106.59303 | 10861 ft | 368 kts | 316° |
| 2026-05-06 13:08 | -5.78733 | 106.57483 | 11414 ft | 374 kts | 316° |
| 2026-05-06 13:09 | -5.76869 | 106.55640 | 12031 ft | 378 kts | 316° |
| 2026-05-06 13:09 | -5.74980 | 106.53775 | 12655 ft | 382 kts | 316° |
| 2026-05-06 13:09 | -5.73069 | 106.51890 | 13262 ft | 386 kts | 316° |
| 2026-05-06 13:09 | -5.71142 | 106.49991 | 13840 ft | 390 kts | 316° |
| 2026-05-06 13:10 | -5.69219 | 106.48100 | 14384 ft | 393 kts | 316° |
| 2026-05-06 13:10 | -5.67260 | 106.46173 | 14946 ft | 395 kts | 316° |
| 2026-05-06 13:10 | -5.65288 | 106.44235 | 15493 ft | 398 kts | 316° |
| 2026-05-06 13:10 | -5.63303 | 106.42286 | 16035 ft | 400 kts | 316° |
| 2026-05-06 13:11 | -5.61308 | 106.40324 | 16573 ft | 403 kts | 316° |
| 2026-05-06 13:11 | -5.59296 | 106.38346 | 17096 ft | 405 kts | 316° |
| 2026-05-06 13:11 | -5.57274 | 106.36359 | 17638 ft | 407 kts | 316° |
| 2026-05-06 13:11 | -5.55242 | 106.34362 | 18159 ft | 410 kts | 316° |
| 2026-05-06 13:12 | -5.53200 | 106.32357 | 18593 ft | 412 kts | 316° |
| 2026-05-06 13:12 | -5.51144 | 106.30338 | 19014 ft | 414 kts | 316° |
| 2026-05-06 13:12 | -5.49079 | 106.28310 | 19423 ft | 417 kts | 316° |
| 2026-05-06 13:12 | -5.47019 | 106.26287 | 19820 ft | 420 kts | 317° |
| 2026-05-06 13:13 | -5.44920 | 106.24227 | 20219 ft | 423 kts | 317° |
| 2026-05-06 13:13 | -5.42810 | 106.22153 | 20598 ft | 426 kts | 316° |
| 2026-05-06 13:13 | -5.40691 | 106.20065 | 20987 ft | 428 kts | 316° |
| 2026-05-06 13:13 | -5.38578 | 106.17984 | 21367 ft | 431 kts | 317° |
| 2026-05-06 13:14 | -5.36430 | 106.15874 | 21728 ft | 434 kts | 317° |
| 2026-05-06 13:14 | -5.34264 | 106.13750 | 22101 ft | 436 kts | 317° |
| 2026-05-06 13:14 | -5.32086 | 106.11614 | 22459 ft | 439 kts | 317° |
| 2026-05-06 13:14 | -5.29900 | 106.09467 | 22788 ft | 441 kts | 317° |
| 2026-05-06 13:15 | -5.27704 | 106.07311 | 22879 ft | 442 kts | 317° |
| 2026-05-06 13:15 | -5.25504 | 106.05152 | 22879 ft | 442 kts | 317° |
| 2026-05-06 13:15 | -5.23306 | 106.02994 | 22879 ft | 441 kts | 317° |
| 2026-05-06 13:15 | -5.21132 | 106.00858 | 22879 ft | 441 kts | 317° |
| 2026-05-06 13:16 | -5.18933 | 105.98702 | 22883 ft | 441 kts | 317° |
| 2026-05-06 13:16 | -5.16737 | 105.96552 | 22878 ft | 441 kts | 317° |
| 2026-05-06 13:16 | -5.14542 | 105.94405 | 22880 ft | 441 kts | 317° |
| 2026-05-06 13:16 | -5.12217 | 105.92406 | 22876 ft | 439 kts | 326° |
| 2026-05-06 13:17 | -5.09604 | 105.90799 | 23133 ft | 442 kts | 332° |
| 2026-05-06 13:17 | -5.06919 | 105.89273 | 23473 ft | 445 kts | 332° |
| 2026-05-06 13:17 | -5.04217 | 105.87729 | 23761 ft | 447 kts | 332° |
| 2026-05-06 13:17 | -5.01508 | 105.86177 | 24053 ft | 449 kts | 332° |
| 2026-05-06 13:18 | -4.98786 | 105.84624 | 24345 ft | 451 kts | 332° |
| 2026-05-06 13:18 | -4.96087 | 105.83085 | 24624 ft | 453 kts | 332° |
| 2026-05-06 13:18 | -4.93343 | 105.81522 | 24912 ft | 454 kts | 332° |
| 2026-05-06 13:18 | -4.90584 | 105.79953 | 25191 ft | 456 kts | 332° |
| 2026-05-06 13:19 | -4.87814 | 105.78376 | 25467 ft | 458 kts | 332° |
| 2026-05-06 13:19 | -4.85033 | 105.76793 | 25737 ft | 460 kts | 332° |
| 2026-05-06 13:19 | -4.82241 | 105.75203 | 26008 ft | 461 kts | 332° |
| 2026-05-06 13:19 | -4.79469 | 105.73626 | 26269 ft | 463 kts | 332° |
| 2026-05-06 13:20 | -4.76656 | 105.72026 | 26544 ft | 465 kts | 332° |
| 2026-05-06 13:20 | -4.73839 | 105.70421 | 26789 ft | 467 kts | 332° |
| 2026-05-06 13:20 | -4.71004 | 105.68802 | 26998 ft | 469 kts | 332° |
| 2026-05-06 13:20 | -4.68161 | 105.67181 | 27252 ft | 471 kts | 332° |
| 2026-05-06 13:21 | -4.65308 | 105.65560 | 27490 ft | 472 kts | 332° |
| 2026-05-06 13:21 | -4.62444 | 105.63935 | 27717 ft | 474 kts | 332° |
| 2026-05-06 13:21 | -4.59568 | 105.62303 | 27984 ft | 475 kts | 332° |
| 2026-05-06 13:21 | -4.56694 | 105.60671 | 28227 ft | 476 kts | 332° |